createdAt,value
2019-01-29T00:01:16.235Z,0.25
2019-01-29T00:03:42.983Z,0.19
2019-01-29T00:06:09.581Z,0.19
2019-01-29T00:08:36.131Z,0.18
2019-01-29T00:11:03.250Z,0.16
2019-01-29T00:13:29.862Z,0.14
2019-01-29T00:15:56.445Z,0.13
2019-01-29T00:18:22.951Z,0.14
2019-01-29T00:20:49.464Z,0.11
2019-01-29T00:23:15.940Z,0.08
2019-01-29T00:25:42.585Z,0.11
2019-01-29T00:28:09.318Z,0.12
2019-01-29T00:30:35.827Z,0.15
2019-01-29T00:33:02.432Z,0.21
2019-01-29T00:35:28.986Z,0.26
2019-01-29T00:37:55.624Z,0.27
2019-01-29T00:40:22.614Z,0.31
2019-01-29T00:42:49.205Z,0.26
2019-01-29T00:45:16.402Z,0.30
2019-01-29T00:47:42.980Z,0.27
2019-01-29T00:50:09.922Z,0.30
2019-01-29T00:52:41.800Z,0.33
2019-01-29T00:55:06.688Z,0.30
2019-01-29T00:57:33.285Z,0.32
2019-01-29T00:59:59.813Z,0.31
2019-01-29T01:02:26.284Z,0.23
2019-01-29T01:04:53.134Z,0.27
2019-01-29T01:07:19.726Z,0.28
2019-01-29T01:09:46.514Z,0.27
2019-01-29T01:12:13.061Z,0.22
2019-01-29T01:14:39.603Z,0.27
2019-01-29T01:17:06.168Z,0.28
2019-01-29T01:19:32.709Z,0.27
2019-01-29T01:21:59.716Z,0.32
2019-01-29T01:24:26.231Z,0.28
2019-01-29T01:26:52.849Z,0.30
2019-01-29T01:29:20.675Z,0.30
2019-01-29T01:31:47.486Z,0.30
2019-01-29T01:34:13.953Z,0.27
2019-01-29T01:36:40.443Z,0.23
2019-01-29T01:39:07.744Z,0.27
2019-01-29T01:41:34.388Z,0.24
2019-01-29T01:44:00.859Z,0.23
2019-01-29T01:46:27.730Z,0.28
2019-01-29T01:48:54.623Z,0.24
2019-01-29T01:51:21.142Z,0.22
2019-01-29T01:53:47.666Z,0.21
2019-01-29T01:56:14.122Z,0.18
2019-01-29T01:58:40.641Z,0.17
2019-01-29T02:01:07.195Z,0.20
2019-01-29T02:03:33.685Z,0.20
2019-01-29T02:06:00.778Z,0.21
2019-01-29T02:08:27.650Z,0.23
2019-01-29T02:10:54.443Z,0.21
2019-01-29T02:13:20.920Z,0.19
2019-01-29T02:15:47.466Z,0.22
2019-01-29T02:18:14.021Z,0.18
2019-01-29T02:20:40.527Z,0.21
2019-01-29T02:23:07.974Z,0.20
2019-01-29T02:25:35.001Z,0.18
2019-01-29T02:28:01.597Z,0.20
2019-01-29T02:30:28.153Z,0.20
2019-01-29T02:32:54.809Z,0.21
2019-01-29T02:35:21.385Z,0.23
2019-01-29T02:37:48.901Z,0.18
2019-01-29T02:40:18.447Z,0.20
2019-01-29T02:42:44.980Z,0.17
2019-01-29T02:45:12.677Z,0.16
2019-01-29T02:47:39.226Z,0.12
2019-01-29T02:50:06.882Z,0.11
2019-01-29T02:52:33.417Z,0.06
2019-01-29T02:55:00.416Z,0.08
2019-01-29T02:57:26.957Z,0.07
2019-01-29T02:59:53.468Z,0.06
2019-01-29T03:02:20.351Z,0.07
2019-01-29T03:04:46.829Z,0.00
2019-01-29T03:07:13.494Z,0.03
2019-01-29T03:09:40.092Z,0.04
2019-01-29T03:12:06.876Z,0.05
2019-01-29T03:14:33.700Z,0.05
2019-01-29T03:17:00.183Z,-0.03
2019-01-29T03:19:26.712Z,-0.10
2019-01-29T03:21:53.611Z,-0.17
2019-01-29T03:24:20.095Z,-0.20
2019-01-29T03:26:46.710Z,-0.25
2019-01-29T03:29:13.314Z,-0.33
2019-01-29T03:31:39.791Z,-0.35
2019-01-29T03:34:06.441Z,-0.41
2019-01-29T03:36:33.068Z,-0.43
2019-01-29T03:38:59.912Z,-0.49
2019-01-29T03:41:26.563Z,-0.53
2019-01-29T03:43:53.184Z,-0.54
2019-01-29T03:46:19.706Z,-0.57
2019-01-29T03:48:46.484Z,-0.58
2019-01-29T03:51:13.132Z,-0.59
2019-01-29T03:53:39.635Z,-0.61
2019-01-29T03:56:06.213Z,-0.66
2019-01-29T03:58:32.712Z,-0.71
2019-01-29T04:00:59.243Z,-0.69
2019-01-29T04:03:25.721Z,-0.69
2019-01-29T04:05:52.285Z,-0.68
2019-01-29T04:08:18.873Z,-0.67
2019-01-29T04:10:45.386Z,-0.70
2019-01-29T04:13:11.853Z,-0.71
2019-01-29T04:15:39.404Z,-0.66
2019-01-29T04:18:05.967Z,-0.70
2019-01-29T04:20:32.471Z,-0.77
2019-01-29T04:22:58.957Z,-0.79
2019-01-29T04:25:25.506Z,-0.82
2019-01-29T04:27:52.434Z,-0.78
2019-01-29T04:30:20.129Z,-0.81
2019-01-29T04:32:46.631Z,-0.86
2019-01-29T04:35:13.837Z,-0.86
2019-01-29T04:37:40.637Z,-0.90
2019-01-29T04:40:09.247Z,-0.90
2019-01-29T04:42:35.707Z,-0.86
2019-01-29T04:45:02.882Z,-0.85
2019-01-29T04:47:29.399Z,-0.78
2019-01-29T04:49:55.967Z,-0.77
2019-01-29T04:52:26.522Z,-0.78
2019-01-29T04:54:53.068Z,-0.82
2019-01-29T04:57:19.560Z,-0.83
2019-01-29T04:59:46.072Z,-0.82
2019-01-29T05:02:12.520Z,-0.70
2019-01-29T05:04:39.356Z,-0.62
2019-01-29T05:07:05.830Z,-0.50
2019-01-29T05:09:32.325Z,-0.46
2019-01-29T05:11:58.781Z,-0.36
2019-01-29T05:14:25.235Z,-0.35
2019-01-29T05:16:51.707Z,-0.29
2019-01-29T05:19:18.303Z,-0.24
2019-01-29T05:21:44.794Z,-0.19
2019-01-29T05:24:11.273Z,-0.18
2019-01-29T05:26:37.732Z,-0.12
2019-01-29T05:29:04.175Z,-0.08
2019-01-29T05:31:30.705Z,-0.07
2019-01-29T05:33:57.295Z,-0.01
2019-01-29T05:36:23.870Z,0.04
2019-01-29T05:38:50.718Z,0.06
2019-01-29T05:41:17.276Z,0.06
2019-01-29T05:43:43.777Z,0.10
2019-01-29T05:46:10.309Z,0.13
2019-01-29T05:48:36.784Z,0.12
2019-01-29T05:51:03.368Z,0.12
2019-01-29T05:53:29.852Z,0.13
2019-01-29T05:55:56.337Z,0.15
2019-01-29T05:58:22.798Z,0.22
2019-01-29T06:00:49.333Z,0.23
2019-01-29T06:03:15.836Z,0.20
2019-01-29T06:05:42.316Z,0.20
2019-01-29T06:08:08.801Z,0.19
2019-01-29T06:10:35.287Z,0.20
2019-01-29T06:13:01.842Z,0.22
2019-01-29T06:15:28.432Z,0.27
2019-01-29T06:17:54.945Z,0.29
2019-01-29T06:20:22.821Z,0.25
2019-01-29T06:22:49.498Z,0.28
2019-01-29T06:25:16.388Z,0.26
2019-01-29T06:27:43.092Z,0.28
2019-01-29T06:30:10.716Z,0.26
2019-01-29T06:32:37.218Z,0.24
2019-01-29T06:35:04.579Z,0.23
2019-01-29T06:37:35.119Z,0.20
2019-01-29T06:40:01.795Z,0.19
2019-01-29T06:42:28.513Z,0.23
2019-01-29T06:44:55.036Z,0.26
2019-01-29T06:47:21.867Z,0.27
2019-01-29T06:49:48.357Z,0.22
2019-01-29T06:52:14.868Z,0.25
2019-01-29T06:54:41.423Z,0.26
2019-01-29T06:57:08.025Z,0.22
2019-01-29T06:59:34.468Z,0.22
2019-01-29T07:02:01.307Z,0.25
2019-01-29T07:04:27.828Z,0.27
2019-01-29T07:06:54.437Z,0.24
2019-01-29T07:09:20.891Z,0.23
2019-01-29T07:11:59.145Z,0.22
2019-01-29T07:14:25.828Z,0.28
2019-01-29T07:17:05.333Z,0.32
2019-01-29T07:19:38.006Z,0.33
2019-01-29T07:22:04.683Z,0.31
2019-01-29T07:24:31.195Z,0.35
2019-01-29T07:26:57.659Z,0.38
2019-01-29T07:29:25.209Z,0.41
2019-01-29T07:31:52.886Z,0.45
2019-01-29T07:34:19.365Z,0.47
2019-01-29T07:36:45.850Z,0.46
2019-01-29T07:39:12.492Z,0.51
2019-01-29T07:41:38.987Z,0.53
2019-01-29T07:44:05.889Z,0.56
2019-01-29T07:46:32.635Z,0.55
2019-01-29T07:48:59.216Z,0.55
2019-01-29T07:51:25.814Z,0.59
2019-01-29T07:53:52.418Z,0.60
2019-01-29T07:56:19.045Z,0.60
2019-01-29T07:58:45.790Z,0.62
2019-01-29T08:01:12.456Z,0.67
2019-01-29T08:03:38.946Z,0.77
2019-01-29T08:06:05.456Z,0.78
2019-01-29T08:08:31.952Z,0.82
2019-01-29T08:10:58.523Z,0.88
2019-01-29T08:13:25.101Z,0.95
2019-01-29T08:15:53.810Z,1.02
2019-01-29T08:18:20.714Z,1.09
2019-01-29T08:20:47.358Z,1.22
2019-01-29T08:23:13.873Z,1.28
2019-01-29T08:25:47.683Z,1.39
2019-01-29T08:28:08.845Z,1.51
2019-01-29T08:30:35.541Z,1.62
2019-01-29T08:33:02.068Z,1.83
2019-01-29T08:35:28.656Z,1.82
2019-01-29T08:37:55.221Z,1.76
2019-01-29T08:40:23.183Z,1.81
2019-01-29T08:42:49.715Z,1.80
2019-01-29T08:45:16.328Z,1.77
2019-01-29T08:47:43.279Z,1.71
2019-01-29T08:50:13.057Z,1.64
2019-01-29T08:52:39.620Z,1.60
2019-01-29T08:55:10.713Z,1.58
2019-01-29T08:57:35.159Z,1.54
2019-01-29T09:00:03.784Z,1.58
2019-01-29T09:02:30.304Z,1.57
2019-01-29T09:04:56.952Z,1.57
2019-01-29T09:07:23.499Z,1.60
2019-01-29T09:09:50.180Z,1.59
2019-01-29T09:12:16.773Z,1.60
2019-01-29T09:14:43.291Z,1.67
2019-01-29T09:17:09.800Z,1.76
2019-01-29T09:19:36.354Z,1.85
2019-01-29T09:22:02.961Z,1.90
2019-01-29T09:24:29.554Z,1.96
2019-01-29T09:26:56.383Z,2.02
2019-01-29T09:29:22.855Z,2.13
2019-01-29T09:31:49.395Z,2.21
2019-01-29T09:34:16.948Z,2.25
2019-01-29T09:36:43.492Z,2.28
2019-01-29T09:39:10.345Z,2.28
2019-01-29T09:41:37.013Z,2.25
2019-01-29T09:44:03.701Z,2.23
2019-01-29T09:46:30.413Z,2.39
2019-01-29T09:48:57.698Z,2.57
2019-01-29T09:51:24.236Z,2.61
2019-01-29T09:53:51.025Z,2.62
2019-01-29T09:56:17.755Z,2.65
2019-01-29T09:58:44.319Z,2.67
2019-01-29T10:01:10.870Z,2.67
2019-01-29T10:03:41.903Z,2.58
2019-01-29T10:06:09.592Z,2.61
2019-01-29T10:08:36.335Z,2.57
2019-01-29T10:11:02.908Z,2.62
2019-01-29T10:13:29.770Z,2.63
2019-01-29T10:15:56.459Z,2.58
2019-01-29T10:18:22.990Z,2.60
2019-01-29T10:20:49.565Z,2.52
2019-01-29T10:23:17.444Z,2.48
2019-01-29T10:25:44.023Z,2.45
2019-01-29T10:28:10.619Z,2.52
2019-01-29T10:30:37.317Z,2.57
2019-01-29T10:33:03.777Z,2.52
2019-01-29T10:35:30.442Z,2.48
2019-01-29T10:37:57.049Z,2.49
2019-01-29T10:40:24.302Z,2.59
2019-01-29T10:42:51.397Z,2.56
2019-01-29T10:45:18.643Z,2.62
2019-01-29T10:47:45.192Z,2.62
2019-01-29T10:50:15.802Z,2.60
2019-01-29T10:52:42.900Z,2.66
2019-01-29T10:55:09.593Z,2.68
2019-01-29T10:57:37.134Z,2.65
2019-01-29T11:00:15.054Z,2.63
2019-01-29T11:02:49.829Z,2.66
2019-01-29T11:05:24.615Z,2.72
2019-01-29T11:07:51.591Z,2.67
2019-01-29T11:10:18.761Z,2.64
2019-01-29T11:12:45.358Z,2.61
2019-01-29T11:15:15.039Z,2.61
2019-01-29T11:17:41.552Z,2.60
2019-01-29T11:20:10.845Z,2.57
2019-01-29T11:22:37.581Z,2.62
2019-01-29T11:25:06.942Z,2.69
2019-01-29T11:27:33.608Z,2.73
2019-01-29T11:30:00.266Z,2.68
2019-01-29T11:32:27.056Z,2.72
2019-01-29T11:34:53.545Z,2.81
2019-01-29T11:37:20.358Z,2.80
2019-01-29T11:39:46.803Z,2.83
2019-01-29T11:42:13.530Z,2.80
2019-01-29T11:44:40.286Z,2.94
2019-01-29T11:47:07.121Z,3.12
2019-01-29T11:49:33.619Z,3.18
2019-01-29T11:52:00.241Z,3.09
2019-01-29T11:54:26.764Z,3.29
2019-01-29T11:56:53.735Z,3.23
2019-01-29T11:59:20.214Z,3.10
2019-01-29T12:01:46.656Z,3.06
2019-01-29T12:04:13.272Z,3.08
2019-01-29T12:06:40.163Z,3.08
2019-01-29T12:09:12.686Z,3.13
2019-01-29T12:11:39.674Z,3.29
2019-01-29T12:14:06.511Z,3.38
2019-01-29T12:16:34.235Z,3.40
2019-01-29T12:19:00.839Z,3.34
2019-01-29T12:21:27.606Z,3.36
2019-01-29T12:23:56.128Z,3.41
2019-01-29T12:26:23.368Z,3.56
2019-01-29T12:28:49.875Z,3.65
2019-01-29T12:31:16.473Z,3.52
2019-01-29T12:33:42.990Z,3.46
2019-01-29T12:36:09.517Z,3.41
2019-01-29T12:38:36.145Z,3.34
2019-01-29T12:41:04.056Z,3.39
2019-01-29T12:43:30.698Z,3.50
2019-01-29T12:45:57.252Z,3.72
2019-01-29T12:48:24.000Z,3.69
2019-01-29T12:50:57.477Z,3.70
2019-01-29T12:53:29.236Z,3.68
2019-01-29T12:55:55.774Z,3.68
2019-01-29T12:58:22.289Z,3.56
2019-01-29T13:00:56.746Z,3.58
2019-01-29T13:03:23.352Z,3.56
2019-01-29T13:05:50.402Z,3.45
2019-01-29T13:08:17.295Z,3.41
2019-01-29T13:10:43.766Z,3.30
2019-01-29T13:13:13.868Z,3.31
2019-01-29T13:15:40.469Z,3.32
2019-01-29T13:18:08.161Z,3.33
2019-01-29T13:20:34.811Z,3.32
2019-01-29T13:23:01.541Z,3.36
2019-01-29T13:25:28.031Z,3.38
2019-01-29T13:27:54.726Z,3.30
2019-01-29T13:30:32.287Z,3.19
2019-01-29T13:33:06.452Z,3.16
2019-01-29T13:35:47.517Z,3.20
2019-01-29T13:38:22.500Z,3.28
2019-01-29T13:40:49.149Z,3.40
2019-01-29T13:43:15.856Z,3.36
2019-01-29T13:45:42.583Z,3.19
2019-01-29T13:48:09.161Z,3.12
2019-01-29T13:51:10.117Z,3.15
2019-01-29T13:53:37.183Z,3.12
2019-01-29T13:56:03.914Z,3.16
2019-01-29T13:58:30.880Z,3.14
2019-01-29T14:00:57.527Z,3.06
2019-01-29T14:03:24.268Z,3.00
2019-01-29T14:05:52.872Z,3.00
2019-01-29T14:08:19.405Z,2.93
2019-01-29T14:10:46.162Z,2.80
2019-01-29T14:13:15.611Z,2.70
2019-01-29T14:15:55.890Z,2.58
2019-01-29T14:18:24.746Z,2.51
2019-01-29T14:20:51.644Z,2.51
2019-01-29T14:23:18.283Z,2.59
2019-01-29T14:25:45.988Z,2.56
2019-01-29T14:28:22.623Z,2.59
2019-01-29T14:30:49.375Z,2.63
2019-01-29T14:33:16.622Z,2.67
2019-01-29T14:35:43.186Z,2.72
2019-01-29T14:38:55.019Z,2.65
2019-01-29T14:41:21.978Z,2.57
2019-01-29T14:43:54.438Z,2.48
2019-01-29T14:46:21.621Z,2.49
2019-01-29T14:48:48.842Z,2.43
2019-01-29T14:51:16.855Z,2.43
2019-01-29T14:53:43.348Z,2.45
2019-01-29T14:56:16.192Z,2.43
2019-01-29T14:58:51.896Z,2.42
2019-01-29T15:01:27.929Z,2.35
2019-01-29T15:04:02.771Z,2.31
2019-01-29T15:06:35.732Z,2.26
2019-01-29T15:09:08.197Z,2.18
2019-01-29T15:11:42.339Z,2.14
2019-01-29T15:14:12.938Z,2.12
2019-01-29T15:17:05.717Z,2.15
2019-01-29T15:19:40.266Z,2.16
2019-01-29T15:22:07.949Z,2.17
2019-01-29T15:24:36.237Z,2.22
2019-01-29T15:27:06.343Z,2.24
2019-01-29T15:29:33.817Z,2.25
2019-01-29T15:32:01.056Z,2.20
2019-01-29T15:34:30.530Z,2.16
2019-01-29T15:36:58.377Z,2.14
2019-01-29T15:39:30.149Z,2.07
2019-01-29T15:42:04.584Z,1.97
2019-01-29T15:44:33.518Z,1.82
2019-01-29T15:47:00.145Z,1.71
2019-01-29T15:49:28.642Z,1.58
2019-01-29T15:51:58.751Z,1.44
2019-01-29T15:54:25.556Z,1.32
2019-01-29T15:56:54.787Z,1.22
2019-01-29T15:59:21.574Z,1.14
2019-01-29T16:01:48.301Z,1.08
2019-01-29T16:04:15.217Z,1.02
2019-01-29T16:06:41.862Z,0.93
2019-01-29T16:09:08.729Z,0.90
2019-01-29T16:11:35.249Z,0.81
2019-01-29T16:14:01.714Z,0.73
2019-01-29T16:16:28.234Z,0.63
2019-01-29T16:18:58.004Z,0.53
2019-01-29T16:21:27.660Z,0.42
2019-01-29T16:23:54.479Z,0.30
2019-01-29T16:26:21.176Z,0.20
2019-01-29T16:28:47.721Z,0.08
2019-01-29T16:31:14.364Z,-0.05
2019-01-29T16:33:40.860Z,-0.13
2019-01-29T16:36:07.617Z,-0.19
2019-01-29T16:38:34.093Z,-0.27
2019-01-29T16:41:02.729Z,-0.34
2019-01-29T16:43:29.231Z,-0.38
2019-01-29T16:45:57.625Z,-0.40
2019-01-29T16:48:24.150Z,-0.41
2019-01-29T16:50:50.684Z,-0.45
2019-01-29T16:53:17.434Z,-0.47
2019-01-29T16:55:44.320Z,-0.47
2019-01-29T16:58:10.857Z,-0.48
2019-01-29T17:00:38.045Z,-0.48
2019-01-29T17:03:07.706Z,-0.51
2019-01-29T17:05:36.983Z,-0.55
2019-01-29T17:08:06.011Z,-0.56
2019-01-29T17:10:36.386Z,-0.47
2019-01-29T17:13:06.745Z,-0.43
2019-01-29T17:15:35.850Z,-0.42
2019-01-29T17:18:05.867Z,-0.48
2019-01-29T17:20:37.137Z,-0.54
2019-01-29T17:23:06.723Z,-0.63
2019-01-29T17:25:35.696Z,-0.71
2019-01-29T17:28:04.779Z,-0.77
2019-01-29T17:30:41.757Z,-0.82
2019-01-29T17:33:09.501Z,-0.82
2019-01-29T17:35:37.600Z,-0.86
2019-01-29T17:38:07.586Z,-0.91
2019-01-29T17:40:36.976Z,-0.86
2019-01-29T17:43:07.128Z,-0.81
2019-01-29T17:45:39.042Z,-0.83
2019-01-29T17:48:06.106Z,-0.82
2019-01-29T17:50:37.328Z,-0.85
2019-01-29T17:53:05.258Z,-0.87
2019-01-29T17:55:36.186Z,-0.83
2019-01-29T17:58:05.943Z,-0.83
2019-01-29T18:00:35.121Z,-0.79
2019-01-29T18:03:05.056Z,-0.88
2019-01-29T18:05:35.063Z,-0.94
2019-01-29T18:08:01.703Z,-0.97
2019-01-29T18:10:28.736Z,-0.97
2019-01-29T18:12:58.294Z,-0.96
2019-01-29T18:15:26.111Z,-0.94
2019-01-29T18:17:54.943Z,-0.98
2019-01-29T18:20:21.653Z,-1.02
2019-01-29T18:22:48.254Z,-0.90
2019-01-29T18:25:18.102Z,-0.88
2019-01-29T18:28:00.648Z,-0.90
2019-01-29T18:30:21.536Z,-0.95
2019-01-29T18:32:50.113Z,-1.06
2019-01-29T18:35:17.084Z,-1.11
2019-01-29T18:37:46.777Z,-1.05
2019-01-29T18:40:35.890Z,-0.90
2019-01-29T18:43:05.671Z,-0.80
2019-01-29T18:45:43.866Z,-0.69
2019-01-29T18:48:19.047Z,-0.63
2019-01-29T18:50:45.601Z,-0.52
2019-01-29T18:53:15.043Z,-0.49
2019-01-29T18:55:44.746Z,-0.46
2019-01-29T18:58:17.426Z,-0.44
2019-01-29T19:00:54.291Z,-0.42
2019-01-29T19:03:26.038Z,-0.37
2019-01-29T19:05:53.178Z,-0.33
2019-01-29T19:08:20.053Z,-0.31
2019-01-29T19:10:46.812Z,-0.25
2019-01-29T19:13:15.806Z,-0.23
2019-01-29T19:16:00.769Z,-0.21
2019-01-29T19:18:45.377Z,-0.21
2019-01-29T19:21:15.074Z,-0.26
2019-01-29T19:23:41.824Z,-0.29
2019-01-29T19:26:08.428Z,-0.25
2019-01-29T19:28:35.422Z,-0.22
2019-01-29T19:31:04.753Z,-0.21
2019-01-29T19:33:30.795Z,-0.20
2019-01-29T19:35:57.559Z,-0.20
2019-01-29T19:38:24.193Z,-0.18
2019-01-29T19:40:50.774Z,-0.13
2019-01-29T19:43:17.409Z,-0.08
2019-01-29T19:45:44.118Z,-0.05
2019-01-29T19:48:10.996Z,0.00
2019-01-29T19:50:37.694Z,0.00
2019-01-29T19:53:04.204Z,0.04
2019-01-29T19:55:30.665Z,0.03
2019-01-29T19:58:08.356Z,0.00
2019-01-29T20:00:34.736Z,0.01
2019-01-29T20:03:01.468Z,0.02
2019-01-29T20:05:28.031Z,-0.03
2019-01-29T20:07:54.630Z,-0.11
2019-01-29T20:10:21.449Z,-0.17
2019-01-29T20:12:48.139Z,-0.23
2019-01-29T20:15:15.681Z,-0.30
2019-01-29T20:17:42.382Z,-0.29
2019-01-29T20:20:12.208Z,-0.31
2019-01-29T20:22:39.859Z,-0.32
2019-01-29T20:25:06.890Z,-0.33
2019-01-29T20:27:33.427Z,-0.32
2019-01-29T20:29:59.976Z,-0.32
2019-01-29T20:32:26.578Z,-0.33
2019-01-29T20:34:53.326Z,-0.36
2019-01-29T20:37:19.811Z,-0.33
2019-01-29T20:39:46.364Z,-0.43
2019-01-29T20:42:12.886Z,-0.45
2019-01-29T20:44:39.774Z,-0.47
2019-01-29T20:47:06.531Z,-0.48
2019-01-29T20:49:33.058Z,-0.46
2019-01-29T20:51:59.812Z,-0.46
2019-01-29T20:54:26.338Z,-0.46
2019-01-29T20:56:52.806Z,-0.51
2019-01-29T20:59:19.459Z,-0.51
2019-01-29T21:01:48.864Z,-0.51
2019-01-29T21:04:16.620Z,-0.55
2019-01-29T21:06:43.448Z,-0.61
2019-01-29T21:09:09.963Z,-0.64
2019-01-29T21:11:36.589Z,-0.64
2019-01-29T21:14:03.373Z,-0.65
2019-01-29T21:16:29.958Z,-0.72
2019-01-29T21:18:56.807Z,-0.75
2019-01-29T21:21:23.699Z,-0.86
2019-01-29T21:23:50.483Z,-0.90
2019-01-29T21:26:17.918Z,-0.94
2019-01-29T21:28:44.473Z,-0.97
2019-01-29T21:31:11.751Z,-1.01
2019-01-29T21:33:38.460Z,-1.07
2019-01-29T21:36:05.157Z,-1.06
2019-01-29T21:38:32.046Z,-1.09
2019-01-29T21:41:02.192Z,-1.14
2019-01-29T21:43:29.425Z,-1.18
2019-01-29T21:45:56.255Z,-1.22
2019-01-29T21:48:22.898Z,-1.23
2019-01-29T21:50:49.653Z,-1.37
2019-01-29T21:53:17.313Z,-1.54
2019-01-29T21:55:44.510Z,-1.65
2019-01-29T21:58:11.078Z,-1.74
2019-01-29T22:00:43.593Z,-1.79
2019-01-29T22:03:11.271Z,-1.80
2019-01-29T22:05:37.924Z,-1.83
2019-01-29T22:08:06.677Z,-1.79
2019-01-29T22:10:41.854Z,-1.67
2019-01-29T22:13:09.649Z,-1.68
2019-01-29T22:15:36.339Z,-1.72
2019-01-29T22:18:05.578Z,-1.73
2019-01-29T22:20:35.046Z,-1.79
2019-01-29T22:23:03.914Z,-1.86
2019-01-29T22:25:30.695Z,-1.92
2019-01-29T22:27:57.964Z,-1.93
2019-01-29T22:30:27.106Z,-1.92
2019-01-29T22:32:55.588Z,-1.94
2019-01-29T22:35:25.290Z,-1.93
2019-01-29T22:37:53.947Z,-1.89
2019-01-29T22:40:23.826Z,-1.79
2019-01-29T22:42:50.849Z,-1.73
2019-01-29T22:45:17.542Z,-1.68
2019-01-29T22:47:53.749Z,-1.64
2019-01-29T22:50:28.180Z,-1.63
2019-01-29T22:52:55.088Z,-1.63
2019-01-29T22:55:25.305Z,-1.64
2019-01-29T22:57:55.051Z,-1.58
2019-01-29T23:00:33.796Z,-1.60
2019-01-29T23:03:00.308Z,-1.56
2019-01-29T23:05:26.912Z,-1.56
2019-01-29T23:07:53.516Z,-1.52
2019-01-29T23:10:20.406Z,-1.54
2019-01-29T23:12:47.354Z,-1.54
2019-01-29T23:15:15.291Z,-1.58
2019-01-29T23:17:41.878Z,-1.58
2019-01-29T23:20:09.461Z,-1.66
2019-01-29T23:22:35.971Z,-1.71
2019-01-29T23:25:07.026Z,-1.71
2019-01-29T23:27:33.555Z,-1.77
2019-01-29T23:30:00.197Z,-1.84
2019-01-29T23:32:26.796Z,-1.87
2019-01-29T23:34:53.370Z,-1.87
2019-01-29T23:37:19.890Z,-1.90
2019-01-29T23:39:53.250Z,-1.93
2019-01-29T23:42:19.728Z,-1.92
2019-01-29T23:44:46.574Z,-1.92
2019-01-29T23:47:13.333Z,-1.95
2019-01-29T23:49:39.864Z,-1.95
2019-01-29T23:52:06.499Z,-2.02
2019-01-29T23:54:33.077Z,-2.01
2019-01-29T23:56:59.605Z,-2.00
2019-01-29T23:59:26.170Z,-2.04
